首页
METAR-TAF:

METAR-TAF

机场 :

Greer, 南卡罗来纳州, 美国

纬度: 34-53-02N, 经度: 082-13-15W, 海拔: 296米

当前天气观测

该预报发布于58分钟前的19:53 UTC
风速7节,风向西南
温度 12°C
湿度 35%
气压 1015 hPa
能見度: 16.1公里
天空无云

METAR: KGSP 261953Z 23007KT 10SM CLR 12/M03 A2997 RMK AO2 SLP149 T01171028 $

时间: 15:51 (20:51 UTC)

预报

该预报发布于9分钟前的20:42 UTC
预报有效从26日的 21点(UTC)到 27日的 18点(UTC)
风速6节,风向西转西南
能見度: 10公里
散云层高于6000英尺
多云层高于12000英尺
从 27日的 0700点(UTC)
风速4节,风向西转西南
能見度: 10公里
多云层高于6000英尺
附近有阵雨
几率 30%
从 27日的 09点(UTC)到 27日的 13点(UTC)
能見度: 6.4公里
阴天层高于2500英尺
小阵雨, 轻雾
从 27日的 1300点(UTC)
风速6节,风向西转西南
能見度: 8.0公里
多云层高于2500英尺
轻雾

TAF: KGSP 262042Z 2621/2718 24006KT P6SM SCT060 BKN120 FM270700 25004KT P6SM VCSH BKN060 PROB30 2709/2713 4SM -SHRA BR OVC025 FM271300 24006KT 5SM BR BKN025

超过4000个机场的气象观测和天气预报(METAR&TAF报告)。

可查询的气象台以黄色和红色小点在地图上表示。

将鼠标移到小点上方,可查看气象台名称。

然后点击查看天气观测和预报。

如需切换地图:点击带黑十字的绿色按钮放大地图;点击带横线的绿色按钮缩小地图;或者点击绿色箭头查看邻近地区的地图。


METAR-TAF: